sensor_id;sensor_type;location;lat;lon;timestamp;pressure;altitude;pressure_sealevel;temperature;humidity
33795;BME280;51430;52.242;21.118;2023-03-24T00:01:56;99602.25;;;14.37;67.51
33795;BME280;51430;52.242;21.118;2023-03-24T00:04:23;99602.21;;;14.30;67.70
33795;BME280;51430;52.242;21.118;2023-03-24T00:06:51;99611.89;;;14.33;67.51
33795;BME280;51430;52.242;21.118;2023-03-24T00:09:20;99610.52;;;14.31;67.69
33795;BME280;51430;52.242;21.118;2023-03-24T00:11:48;99616.33;;;14.28;67.80
33795;BME280;51430;52.242;21.118;2023-03-24T00:14:17;99615.88;;;14.27;67.83
33795;BME280;51430;52.242;21.118;2023-03-24T00:16:45;99615.81;;;14.24;67.82
33795;BME280;51430;52.242;21.118;2023-03-24T00:19:13;99617.07;;;14.19;67.97
33795;BME280;51430;52.242;21.118;2023-03-24T00:21:43;99615.73;;;14.14;68.20
33795;BME280;51430;52.242;21.118;2023-03-24T00:24:11;99612.52;;;14.13;68.36
33795;BME280;51430;52.242;21.118;2023-03-24T00:26:40;99615.19;;;14.10;68.49
33795;BME280;51430;52.242;21.118;2023-03-24T00:29:10;99618.66;;;14.07;68.80
33795;BME280;51430;52.242;21.118;2023-03-24T00:31:38;99618.56;;;14.06;68.74
33795;BME280;51430;52.242;21.118;2023-03-24T00:34:08;99620.94;;;14.03;68.93
33795;BME280;51430;52.242;21.118;2023-03-24T00:36:36;99626.23;;;14.03;69.06
33795;BME280;51430;52.242;21.118;2023-03-24T00:39:04;99622.75;;;13.99;69.14
33795;BME280;51430;52.242;21.118;2023-03-24T00:41:34;99622.98;;;13.94;69.27
33795;BME280;51430;52.242;21.118;2023-03-24T00:44:02;99623.80;;;13.89;69.47
33795;BME280;51430;52.242;21.118;2023-03-24T00:46:32;99621.58;;;13.82;69.73
33795;BME280;51430;52.242;21.118;2023-03-24T00:49:03;99613.60;;;13.77;69.78
33795;BME280;51430;52.242;21.118;2023-03-24T00:51:38;99614.36;;;13.68;70.11
33795;BME280;51430;52.242;21.118;2023-03-24T00:54:09;99615.36;;;13.63;70.32
33795;BME280;51430;52.242;21.118;2023-03-24T00:56:38;99612.80;;;13.54;70.63
33795;BME280;51430;52.242;21.118;2023-03-24T00:59:08;99610.68;;;13.52;70.65
33795;BME280;51430;52.242;21.118;2023-03-24T01:01:37;99604.28;;;13.47;70.86
33795;BME280;51430;52.242;21.118;2023-03-24T01:04:08;99602.93;;;13.43;70.94
33795;BME280;51430;52.242;21.118;2023-03-24T01:06:38;99596.09;;;13.37;71.34
33795;BME280;51430;52.242;21.118;2023-03-24T01:09:07;99591.77;;;13.35;71.32
33795;BME280;51430;52.242;21.118;2023-03-24T01:11:38;99595.02;;;13.32;71.32
33795;BME280;51430;52.242;21.118;2023-03-24T01:14:07;99595.29;;;13.28;71.54
33795;BME280;51430;52.242;21.118;2023-03-24T01:16:36;99598.97;;;13.23;71.75
33795;BME280;51430;52.242;21.118;2023-03-24T01:19:06;99597.59;;;13.17;71.95
33795;BME280;51430;52.242;21.118;2023-03-24T01:21:38;99594.88;;;13.16;72.12
33795;BME280;51430;52.242;21.118;2023-03-24T01:24:07;99590.67;;;13.11;72.35
33795;BME280;51430;52.242;21.118;2023-03-24T01:26:36;99591.90;;;13.13;72.38
33795;BME280;51430;52.242;21.118;2023-03-24T01:29:05;99593.17;;;13.11;72.35
33795;BME280;51430;52.242;21.118;2023-03-24T01:31:34;99592.49;;;13.07;72.57
33795;BME280;51430;52.242;21.118;2023-03-24T01:34:03;99590.26;;;13.06;72.56
33795;BME280;51430;52.242;21.118;2023-03-24T01:36:31;99594.55;;;13.00;72.67
33795;BME280;51430;52.242;21.118;2023-03-24T01:38:59;99595.71;;;12.97;72.88
33795;BME280;51430;52.242;21.118;2023-03-24T01:41:34;99591.22;;;12.93;72.99
33795;BME280;51430;52.242;21.118;2023-03-24T01:46:55;99595.97;;;12.88;73.18
33795;BME280;51430;52.242;21.118;2023-03-24T01:49:30;99595.64;;;12.84;73.09
33795;BME280;51430;52.242;21.118;2023-03-24T01:52:01;99589.95;;;12.79;73.31
33795;BME280;51430;52.242;21.118;2023-03-24T01:54:43;99586.05;;;12.76;73.42
33795;BME280;51430;52.242;21.118;2023-03-24T01:59:54;99577.73;;;12.65;73.74
33795;BME280;51430;52.242;21.118;2023-03-24T02:02:24;99573.88;;;12.63;73.88
33795;BME280;51430;52.242;21.118;2023-03-24T02:04:56;99577.36;;;12.62;73.99
33795;BME280;51430;52.242;21.118;2023-03-24T02:07:51;99577.36;;;12.56;74.22
33795;BME280;51430;52.242;21.118;2023-03-24T02:10:23;99580.09;;;12.53;74.41
33795;BME280;51430;52.242;21.118;2023-03-24T02:12:51;99579.86;;;12.52;74.53
33795;BME280;51430;52.242;21.118;2023-03-24T02:15:20;99579.23;;;12.55;74.30
33795;BME280;51430;52.242;21.118;2023-03-24T02:18:05;99576.57;;;12.52;74.41
33795;BME280;51430;52.242;21.118;2023-03-24T02:40:06;99562.95;;;11.86;76.91
33795;BME280;51430;52.242;21.118;2023-03-24T02:59:14;99564.64;;;11.58;78.39
33795;BME280;51430;52.242;21.118;2023-03-24T03:01:59;99562.61;;;11.54;78.43
33795;BME280;51430;52.242;21.118;2023-03-24T03:04:32;99554.10;;;11.40;78.47
33795;BME280;51430;52.242;21.118;2023-03-24T03:07:04;99555.88;;;11.27;79.01
33795;BME280;51430;52.242;21.118;2023-03-24T03:09:46;99559.27;;;11.15;79.74
33795;BME280;51430;52.242;21.118;2023-03-24T03:12:17;99557.89;;;11.09;79.82
33795;BME280;51430;52.242;21.118;2023-03-24T03:14:50;99561.83;;;11.02;80.09
33795;BME280;51430;52.242;21.118;2023-03-24T03:17:23;99568.11;;;10.94;80.58
33795;BME280;51430;52.242;21.118;2023-03-24T03:20:04;99574.15;;;10.88;80.96
33795;BME280;51430;52.242;21.118;2023-03-24T03:22:42;99575.13;;;10.79;81.61
33795;BME280;51430;52.242;21.118;2023-03-24T03:25:17;99581.17;;;10.75;82.11
33795;BME280;51430;52.242;21.118;2023-03-24T03:27:50;99580.27;;;10.72;82.28
33795;BME280;51430;52.242;21.118;2023-03-24T03:30:25;99578.33;;;10.70;82.77
33795;BME280;51430;52.242;21.118;2023-03-24T03:33:00;99577.31;;;10.70;82.84
33795;BME280;51430;52.242;21.118;2023-03-24T03:36:13;99583.52;;;10.71;83.14
33795;BME280;51430;52.242;21.118;2023-03-24T03:38:54;99582.47;;;10.63;83.48
33795;BME280;51430;52.242;21.118;2023-03-24T03:41:26;99584.58;;;10.65;83.76
33795;BME280;51430;52.242;21.118;2023-03-24T03:43:54;99579.38;;;10.74;83.67
33795;BME280;51430;52.242;21.118;2023-03-24T03:46:23;99579.20;;;10.78;83.37
33795;BME280;51430;52.242;21.118;2023-03-24T03:48:53;99578.07;;;10.81;82.96
33795;BME280;51430;52.242;21.118;2023-03-24T03:51:23;99577.65;;;10.80;82.70
33795;BME280;51430;52.242;21.118;2023-03-24T03:54:00;99577.68;;;10.77;82.96
33795;BME280;51430;52.242;21.118;2023-03-24T03:56:30;99573.84;;;10.68;82.98
33795;BME280;51430;52.242;21.118;2023-03-24T03:59:00;99571.14;;;10.59;83.50
33795;BME280;51430;52.242;21.118;2023-03-24T04:01:30;99572.84;;;10.54;83.78
33795;BME280;51430;52.242;21.118;2023-03-24T04:04:10;99569.31;;;10.50;83.90
33795;BME280;51430;52.242;21.118;2023-03-24T04:13:11;99579.89;;;10.27;85.85
33795;BME280;51430;52.242;21.118;2023-03-24T04:15:53;99578.85;;;10.25;85.93
33795;BME280;51430;52.242;21.118;2023-03-24T04:19:18;99576.41;;;10.21;86.37
33795;BME280;51430;52.242;21.118;2023-03-24T04:27:20;99569.61;;;10.11;88.64
33795;BME280;51430;52.242;21.118;2023-03-24T04:32:59;99566.34;;;10.05;89.06
33795;BME280;51430;52.242;21.118;2023-03-24T04:35:40;99564.48;;;10.06;88.94
33795;BME280;51430;52.242;21.118;2023-03-24T04:38:19;99557.28;;;10.09;88.96
33795;BME280;51430;52.242;21.118;2023-03-24T04:41:01;99549.17;;;10.06;88.76
33795;BME280;51430;52.242;21.118;2023-03-24T04:43:32;99546.10;;;10.10;88.52
33795;BME280;51430;52.242;21.118;2023-03-24T04:46:14;99549.58;;;10.10;88.28
33795;BME280;51430;52.242;21.118;2023-03-24T04:49:02;99546.11;;;10.01;88.84
33795;BME280;51430;52.242;21.118;2023-03-24T04:51:31;99544.63;;;10.04;88.83
33795;BME280;51430;52.242;21.118;2023-03-24T04:53:59;99544.02;;;10.03;88.71
33795;BME280;51430;52.242;21.118;2023-03-24T04:56:40;99544.82;;;10.02;88.67
33795;BME280;51430;52.242;21.118;2023-03-24T04:59:10;99540.52;;;9.93;89.15
33795;BME280;51430;52.242;21.118;2023-03-24T05:01:40;99539.35;;;9.97;89.49
33795;BME280;51430;52.242;21.118;2023-03-24T05:04:09;99539.13;;;10.02;89.15
33795;BME280;51430;52.242;21.118;2023-03-24T05:06:37;99543.04;;;10.09;88.84
33795;BME280;51430;52.242;21.118;2023-03-24T05:09:05;99538.23;;;10.14;88.47
33795;BME280;51430;52.242;21.118;2023-03-24T05:11:33;99531.03;;;10.20;87.84
33795;BME280;51430;52.242;21.118;2023-03-24T05:14:01;99531.23;;;10.26;86.95
33795;BME280;51430;52.242;21.118;2023-03-24T05:16:29;99529.83;;;10.40;86.46
33795;BME280;51430;52.242;21.118;2023-03-24T05:18:57;99531.87;;;10.54;85.25
33795;BME280;51430;52.242;21.118;2023-03-24T05:21:25;99537.30;;;10.58;84.55
33795;BME280;51430;52.242;21.118;2023-03-24T05:23:53;99530.36;;;10.59;84.33
33795;BME280;51430;52.242;21.118;2023-03-24T05:26:21;99530.05;;;10.55;84.25
33795;BME280;51430;52.242;21.118;2023-03-24T05:28:49;99530.02;;;10.65;84.22
33795;BME280;51430;52.242;21.118;2023-03-24T05:31:18;99528.85;;;10.72;83.60
33795;BME280;51430;52.242;21.118;2023-03-24T05:33:46;99530.73;;;10.70;83.50
33795;BME280;51430;52.242;21.118;2023-03-24T05:36:15;99528.16;;;10.78;83.28
33795;BME280;51430;52.242;21.118;2023-03-24T05:38:44;99523.13;;;10.81;83.26
33795;BME280;51430;52.242;21.118;2023-03-24T05:41:12;99521.64;;;10.82;82.99
33795;BME280;51430;52.242;21.118;2023-03-24T05:43:40;99523.32;;;10.87;82.71
33795;BME280;51430;52.242;21.118;2023-03-24T05:46:08;99519.84;;;10.87;82.63
33795;BME280;51430;52.242;21.118;2023-03-24T05:48:36;99509.20;;;10.77;83.13
33795;BME280;51430;52.242;21.118;2023-03-24T05:51:05;99506.16;;;10.86;82.88
33795;BME280;51430;52.242;21.118;2023-03-24T05:53:33;99506.05;;;10.96;82.78
33795;BME280;51430;52.242;21.118;2023-03-24T05:56:02;99505.56;;;11.13;82.09
33795;BME280;51430;52.242;21.118;2023-03-24T05:58:30;99507.67;;;11.22;81.65
33795;BME280;51430;52.242;21.118;2023-03-24T06:01:08;99505.82;;;11.23;81.34
33795;BME280;51430;52.242;21.118;2023-03-24T06:03:37;99508.61;;;11.19;81.64
33795;BME280;51430;52.242;21.118;2023-03-24T06:06:07;99506.98;;;11.20;81.61
33795;BME280;51430;52.242;21.118;2023-03-24T06:08:37;99509.05;;;11.24;81.52
33795;BME280;51430;52.242;21.118;2023-03-24T06:11:05;99509.75;;;11.33;81.42
33795;BME280;51430;52.242;21.118;2023-03-24T06:13:34;99513.00;;;11.45;81.04
33795;BME280;51430;52.242;21.118;2023-03-24T06:16:03;99509.56;;;11.45;80.88
33795;BME280;51430;52.242;21.118;2023-03-24T06:18:31;99508.14;;;11.41;80.95
33795;BME280;51430;52.242;21.118;2023-03-24T06:21:01;99505.80;;;11.44;81.04
33795;BME280;51430;52.242;21.118;2023-03-24T06:23:31;99503.88;;;11.47;81.04
33795;BME280;51430;52.242;21.118;2023-03-24T06:26:08;99498.35;;;11.43;81.40
33795;BME280;51430;52.242;21.118;2023-03-24T06:28:39;99498.90;;;11.67;80.88
33795;BME280;51430;52.242;21.118;2023-03-24T06:31:08;99509.13;;;11.77;80.28
33795;BME280;51430;52.242;21.118;2023-03-24T06:33:47;99511.10;;;11.88;80.20
33795;BME280;51430;52.242;21.118;2023-03-24T06:36:16;99509.97;;;11.89;79.83
33795;BME280;51430;52.242;21.118;2023-03-24T06:38:44;99509.34;;;11.86;80.11
33795;BME280;51430;52.242;21.118;2023-03-24T06:41:12;99507.71;;;11.82;80.44
33795;BME280;51430;52.242;21.118;2023-03-24T06:43:40;99507.68;;;11.89;80.34
33795;BME280;51430;52.242;21.118;2023-03-24T06:52:41;99508.30;;;12.26;79.55
33795;BME280;51430;52.242;21.118;2023-03-24T06:55:09;99502.48;;;12.14;79.84
33795;BME280;51430;52.242;21.118;2023-03-24T06:57:37;99502.25;;;12.29;79.69
33795;BME280;51430;52.242;21.118;2023-03-24T07:00:09;99503.80;;;12.50;78.89
33795;BME280;51430;52.242;21.118;2023-03-24T07:02:41;99501.45;;;12.55;78.60
33795;BME280;51430;52.242;21.118;2023-03-24T07:05:10;99505.30;;;12.58;78.61
33795;BME280;51430;52.242;21.118;2023-03-24T07:07:38;99506.64;;;12.61;78.39
33795;BME280;51430;52.242;21.118;2023-03-24T07:10:11;99507.33;;;12.57;78.63
33795;BME280;51430;52.242;21.118;2023-03-24T07:12:41;99510.85;;;12.69;78.20
33795;BME280;51430;52.242;21.118;2023-03-24T07:15:10;99508.86;;;12.73;78.04
33795;BME280;51430;52.242;21.118;2023-03-24T07:17:40;99514.04;;;12.78;77.91
33795;BME280;51430;52.242;21.118;2023-03-24T07:20:09;99511.96;;;12.90;77.51
33795;BME280;51430;52.242;21.118;2023-03-24T07:22:37;99515.45;;;12.91;77.41
33795;BME280;51430;52.242;21.118;2023-03-24T07:25:06;99516.43;;;13.03;77.27
33795;BME280;51430;52.242;21.118;2023-03-24T07:27:35;99523.37;;;13.09;77.19
33795;BME280;51430;52.242;21.118;2023-03-24T07:30:07;99521.59;;;13.07;77.07
33795;BME280;51430;52.242;21.118;2023-03-24T07:32:35;99521.08;;;13.16;76.99
33795;BME280;51430;52.242;21.118;2023-03-24T07:35:08;99522.63;;;13.16;77.10
33795;BME280;51430;52.242;21.118;2023-03-24T07:37:38;99521.67;;;13.25;76.95
33795;BME280;51430;52.242;21.118;2023-03-24T07:40:11;99521.67;;;13.29;77.16
33795;BME280;51430;52.242;21.118;2023-03-24T07:42:41;99518.42;;;13.38;76.89
33795;BME280;51430;52.242;21.118;2023-03-24T07:45:10;99519.20;;;13.46;76.84
33795;BME280;51430;52.242;21.118;2023-03-24T07:47:42;99517.10;;;13.51;77.31
33795;BME280;51430;52.242;21.118;2023-03-24T07:50:14;99514.03;;;13.54;77.70
33795;BME280;51430;52.242;21.118;2023-03-24T07:52:46;99509.48;;;13.46;78.08
33795;BME280;51430;52.242;21.118;2023-03-24T08:02:38;99497.62;;;13.40;79.82
33795;BME280;51430;52.242;21.118;2023-03-24T08:05:05;99496.54;;;13.30;80.80
33795;BME280;51430;52.242;21.118;2023-03-24T08:07:31;99491.29;;;13.28;81.82
33795;BME280;51430;52.242;21.118;2023-03-24T08:10:00;99488.02;;;13.31;82.02
33795;BME280;51430;52.242;21.118;2023-03-24T08:12:27;99485.09;;;13.31;82.52
33795;BME280;51430;52.242;21.118;2023-03-24T08:14:53;99479.61;;;13.30;82.95
33795;BME280;51430;52.242;21.118;2023-03-24T08:17:20;99486.45;;;13.19;84.37
33795;BME280;51430;52.242;21.118;2023-03-24T08:19:47;99484.13;;;13.13;85.51
33795;BME280;51430;52.242;21.118;2023-03-24T08:22:27;99478.23;;;13.09;87.54
33795;BME280;51430;52.242;21.118;2023-03-24T08:24:56;99472.91;;;13.04;88.68
33795;BME280;51430;52.242;21.118;2023-03-24T08:27:26;99473.98;;;13.02;89.60
33795;BME280;51430;52.242;21.118;2023-03-24T08:29:53;99470.05;;;13.05;90.46
33795;BME280;51430;52.242;21.118;2023-03-24T08:32:20;99467.67;;;13.02;90.52
33795;BME280;51430;52.242;21.118;2023-03-24T08:34:46;99457.95;;;13.01;91.48
33795;BME280;51430;52.242;21.118;2023-03-24T08:37:14;99453.55;;;13.14;91.53
33795;BME280;51430;52.242;21.118;2023-03-24T08:39:43;99451.94;;;13.24;91.44
33795;BME280;51430;52.242;21.118;2023-03-24T08:42:12;99449.52;;;13.29;90.95
33795;BME280;51430;52.242;21.118;2023-03-24T08:44:41;99445.73;;;13.42;91.12
33795;BME280;51430;52.242;21.118;2023-03-24T08:47:08;99436.70;;;13.40;90.78
33795;BME280;51430;52.242;21.118;2023-03-24T08:49:35;99430.25;;;13.38;91.33
33795;BME280;51430;52.242;21.118;2023-03-24T08:52:02;99427.61;;;13.36;91.63
33795;BME280;51430;52.242;21.118;2023-03-24T08:54:29;99428.40;;;13.41;91.37
33795;BME280;51430;52.242;21.118;2023-03-24T08:56:55;99419.56;;;13.46;90.81
33795;BME280;51430;52.242;21.118;2023-03-24T08:59:22;99414.60;;;13.49;90.82
33795;BME280;51430;52.242;21.118;2023-03-24T09:01:49;99411.28;;;13.47;90.80
33795;BME280;51430;52.242;21.118;2023-03-24T09:04:15;99406.23;;;13.46;90.81
33795;BME280;51430;52.242;21.118;2023-03-24T09:06:42;99403.08;;;13.48;90.23
33795;BME280;51430;52.242;21.118;2023-03-24T09:09:09;99392.06;;;13.51;90.27
33795;BME280;51430;52.242;21.118;2023-03-24T09:14:57;99381.38;;;13.77;89.74
33795;BME280;51430;52.242;21.118;2023-03-24T09:17:26;99374.78;;;13.83;88.97
33795;BME280;51430;52.242;21.118;2023-03-24T09:19:54;99367.69;;;14.08;88.10
33795;BME280;51430;52.242;21.118;2023-03-24T09:22:22;99368.70;;;14.36;87.30
33795;BME280;51430;52.242;21.118;2023-03-24T09:24:50;99367.55;;;14.66;86.00
33795;BME280;51430;52.242;21.118;2023-03-24T09:27:18;99372.97;;;15.03;84.16
33795;BME280;51430;52.242;21.118;2023-03-24T09:29:48;99374.23;;;15.57;82.62
33795;BME280;51430;52.242;21.118;2023-03-24T09:32:16;99373.77;;;16.30;78.91
33795;BME280;51430;52.242;21.118;2023-03-24T09:34:47;99364.38;;;16.65;77.19
33795;BME280;51430;52.242;21.118;2023-03-24T09:37:17;99359.78;;;16.63;76.18
33795;BME280;51430;52.242;21.118;2023-03-24T09:39:46;99360.72;;;16.65;76.33
33795;BME280;51430;52.242;21.118;2023-03-24T09:42:21;99354.29;;;16.91;75.40
33795;BME280;51430;52.242;21.118;2023-03-24T09:44:56;99349.32;;;17.06;74.01
33795;BME280;51430;52.242;21.118;2023-03-24T09:54:01;99343.00;;;17.83;70.88
33795;BME280;51430;52.242;21.118;2023-03-24T09:56:37;99342.52;;;17.38;72.02
33795;BME280;51430;52.242;21.118;2023-03-24T09:59:16;99339.91;;;17.09;72.92
33795;BME280;51430;52.242;21.118;2023-03-24T10:01:50;99331.39;;;16.78;74.49
33795;BME280;51430;52.242;21.118;2023-03-24T10:04:25;99329.76;;;16.62;75.51
33795;BME280;51430;52.242;21.118;2023-03-24T10:19:55;99318.40;;;16.58;75.89
33795;BME280;51430;52.242;21.118;2023-03-24T10:25:20;99307.92;;;16.61;76.39
33795;BME280;51430;52.242;21.118;2023-03-24T10:28:03;99304.63;;;16.60;76.80
33795;BME280;51430;52.242;21.118;2023-03-24T10:30:38;99303.27;;;16.74;76.24
33795;BME280;51430;52.242;21.118;2023-03-24T10:33:14;99298.95;;;16.64;76.62
33795;BME280;51430;52.242;21.118;2023-03-24T10:35:59;99300.39;;;16.54;76.03
33795;BME280;51430;52.242;21.118;2023-03-24T10:38:56;99305.79;;;16.56;75.19
33795;BME280;51430;52.242;21.118;2023-03-24T10:41:40;99301.20;;;16.57;73.74
33795;BME280;51430;52.242;21.118;2023-03-24T10:44:12;99294.88;;;16.77;73.03
33795;BME280;51430;52.242;21.118;2023-03-24T10:46:47;99293.73;;;16.79;72.85
33795;BME280;51430;52.242;21.118;2023-03-24T10:49:21;99292.41;;;16.77;72.70
33795;BME280;51430;52.242;21.118;2023-03-24T10:51:53;99281.77;;;16.75;73.06
33795;BME280;51430;52.242;21.118;2023-03-24T10:54:30;99277.52;;;16.87;73.09
33795;BME280;51430;52.242;21.118;2023-03-24T10:57:04;99281.27;;;16.89;72.41
33795;BME280;51430;52.242;21.118;2023-03-24T10:59:51;99283.64;;;16.97;72.70
33795;BME280;51430;52.242;21.118;2023-03-24T11:02:24;99287.39;;;16.97;72.21
33795;BME280;51430;52.242;21.118;2023-03-24T11:05:17;99280.47;;;16.94;72.01
33795;BME280;51430;52.242;21.118;2023-03-24T11:08:12;99278.48;;;16.97;72.21
33795;BME280;51430;52.242;21.118;2023-03-24T11:10:44;99279.04;;;16.91;71.89
33795;BME280;51430;52.242;21.118;2023-03-24T11:13:18;99277.86;;;16.91;71.79
33795;BME280;51430;52.242;21.118;2023-03-24T11:16:17;99269.60;;;16.98;71.96
33795;BME280;51430;52.242;21.118;2023-03-24T11:18:58;99273.24;;;16.94;71.97
33795;BME280;51430;52.242;21.118;2023-03-24T11:21:36;99270.80;;;16.94;72.01
33795;BME280;51430;52.242;21.118;2023-03-24T11:24:11;99262.49;;;17.02;71.84
33795;BME280;51430;52.242;21.118;2023-03-24T11:26:49;99260.45;;;17.04;71.71
33795;BME280;51430;52.242;21.118;2023-03-24T11:29:48;99257.47;;;17.08;71.47
33795;BME280;51430;52.242;21.118;2023-03-24T11:32:23;99249.94;;;17.05;71.70
33795;BME280;51430;52.242;21.118;2023-03-24T11:35:10;99249.39;;;17.12;71.25
33795;BME280;51430;52.242;21.118;2023-03-24T11:37:45;99245.11;;;17.17;70.79
33795;BME280;51430;52.242;21.118;2023-03-24T11:40:21;99245.14;;;17.17;71.04
33795;BME280;51430;52.242;21.118;2023-03-24T11:43:00;99242.44;;;17.31;70.39
33795;BME280;51430;52.242;21.118;2023-03-24T11:45:42;99233.31;;;17.30;70.26
33795;BME280;51430;52.242;21.118;2023-03-24T11:48:37;99227.35;;;17.31;70.25
33795;BME280;51430;52.242;21.118;2023-03-24T11:51:09;99221.70;;;17.38;69.78
33795;BME280;51430;52.242;21.118;2023-03-24T11:56:40;99209.70;;;17.48;69.28
33795;BME280;51430;52.242;21.118;2023-03-24T11:59:24;99209.73;;;17.43;69.51
33795;BME280;51430;52.242;21.118;2023-03-24T12:08:40;99193.28;;;17.60;69.22
33795;BME280;51430;52.242;21.118;2023-03-24T12:18:19;99184.53;;;17.77;68.26
33795;BME280;51430;52.242;21.118;2023-03-24T12:21:01;99191.15;;;17.87;67.40
33795;BME280;51430;52.242;21.118;2023-03-24T12:26:33;99183.00;;;18.33;65.35
33795;BME280;51430;52.242;21.118;2023-03-24T12:34:41;99174.27;;;19.53;61.40
33795;BME280;51430;52.242;21.118;2023-03-24T12:37:54;99178.63;;;20.02;59.60
33795;BME280;51430;52.242;21.118;2023-03-24T12:56:15;99151.44;;;22.37;49.39
33795;BME280;51430;52.242;21.118;2023-03-24T12:59:09;99148.58;;;21.77;50.82
33795;BME280;51430;52.242;21.118;2023-03-24T13:01:51;99151.23;;;21.33;51.86
33795;BME280;51430;52.242;21.118;2023-03-24T13:04:28;99141.70;;;21.18;51.95
33795;BME280;51430;52.242;21.118;2023-03-24T13:07:49;99148.56;;;21.14;52.58
33795;BME280;51430;52.242;21.118;2023-03-24T13:10:34;99143.46;;;21.00;52.51
33795;BME280;51430;52.242;21.118;2023-03-24T13:13:21;99143.59;;;20.83;52.58
33795;BME280;51430;52.242;21.118;2023-03-24T13:15:58;99147.09;;;20.74;53.24
33795;BME280;51430;52.242;21.118;2023-03-24T13:18:35;99136.66;;;20.61;52.96
33795;BME280;51430;52.242;21.118;2023-03-24T13:34:55;99117.60;;;21.56;49.77
33795;BME280;51430;52.242;21.118;2023-03-24T13:37:49;99105.09;;;21.37;49.79
33795;BME280;51430;52.242;21.118;2023-03-24T13:40:25;99102.42;;;21.37;50.26
33795;BME280;51430;52.242;21.118;2023-03-24T13:42:57;99099.86;;;21.48;49.85
33795;BME280;51430;52.242;21.118;2023-03-24T13:50:45;99089.86;;;21.42;50.07
33795;BME280;51430;52.242;21.118;2023-03-24T13:53:29;99092.66;;;21.28;50.05
33795;BME280;51430;52.242;21.118;2023-03-24T13:56:01;99085.79;;;20.72;51.24
33795;BME280;51430;52.242;21.118;2023-03-24T14:01:41;99075.41;;;20.71;51.51
33795;BME280;51430;52.242;21.118;2023-03-24T14:04:24;99075.30;;;20.85;51.32
33795;BME280;51430;52.242;21.118;2023-03-24T14:15:48;99066.45;;;20.59;51.43
33795;BME280;51430;52.242;21.118;2023-03-24T14:22:56;99056.02;;;20.80;51.36
33795;BME280;51430;52.242;21.118;2023-03-24T14:26:49;99055.08;;;20.62;51.46
33795;BME280;51430;52.242;21.118;2023-03-24T14:35:42;99043.17;;;20.82;51.31
33795;BME280;51430;52.242;21.118;2023-03-24T14:39:25;99040.73;;;20.81;51.06
33795;BME280;51430;52.242;21.118;2023-03-24T14:41:57;99034.57;;;20.69;51.45
33795;BME280;51430;52.242;21.118;2023-03-24T14:47:33;99031.33;;;20.81;51.40
33795;BME280;51430;52.242;21.118;2023-03-24T14:50:21;99024.45;;;20.88;50.94
33795;BME280;51430;52.242;21.118;2023-03-24T14:53:01;99019.63;;;20.73;51.32
33795;BME280;51430;52.242;21.118;2023-03-24T14:55:33;99015.56;;;20.69;51.41
33795;BME280;51430;52.242;21.118;2023-03-24T14:58:19;99013.48;;;20.64;51.01
33795;BME280;51430;52.242;21.118;2023-03-24T15:00:56;99010.81;;;20.48;51.61
33795;BME280;51430;52.242;21.118;2023-03-24T15:06:18;99000.47;;;20.49;51.69
33795;BME280;51430;52.242;21.118;2023-03-24T15:08:56;98997.61;;;20.46;51.89
33795;BME280;51430;52.242;21.118;2023-03-24T15:11:33;98993.09;;;20.36;51.83
33795;BME280;51430;52.242;21.118;2023-03-24T15:15:21;98991.59;;;20.35;52.18
33795;BME280;51430;52.242;21.118;2023-03-24T15:27:18;98977.40;;;19.92;52.54
33795;BME280;51430;52.242;21.118;2023-03-24T15:29:58;98968.63;;;19.90;52.65
33795;BME280;51430;52.242;21.118;2023-03-24T15:32:32;98968.31;;;19.89;52.59
33795;BME280;51430;52.242;21.118;2023-03-24T15:35:13;98965.06;;;19.83;52.87
33795;BME280;51430;52.242;21.118;2023-03-24T15:37:55;98968.95;;;19.80;53.01
33795;BME280;51430;52.242;21.118;2023-03-24T15:43:17;98964.60;;;19.75;53.19
33795;BME280;51430;52.242;21.118;2023-03-24T15:45:55;98964.71;;;19.75;52.95
33795;BME280;51430;52.242;21.118;2023-03-24T15:49:33;98962.06;;;19.76;52.96
33795;BME280;51430;52.242;21.118;2023-03-24T15:52:33;98958.89;;;19.70;53.21
33795;BME280;51430;52.242;21.118;2023-03-24T15:57:53;98953.25;;;19.74;53.25
33795;BME280;51430;52.242;21.118;2023-03-24T16:00:35;98954.30;;;19.74;53.38
33795;BME280;51430;52.242;21.118;2023-03-24T16:05:30;98952.35;;;19.71;53.52
33795;BME280;51430;52.242;21.118;2023-03-24T16:09:07;98950.56;;;19.47;54.46
33795;BME280;51430;52.242;21.118;2023-03-24T16:11:39;98946.29;;;19.32;54.86
33795;BME280;51430;52.242;21.118;2023-03-24T16:14:28;98940.01;;;19.32;55.08
33795;BME280;51430;52.242;21.118;2023-03-24T16:17:00;98939.65;;;19.31;54.68
33795;BME280;51430;52.242;21.118;2023-03-24T16:19:38;98937.98;;;19.29;54.81
33795;BME280;51430;52.242;21.118;2023-03-24T16:22:10;98937.77;;;19.29;55.02
33795;BME280;51430;52.242;21.118;2023-03-24T16:24:42;98937.42;;;19.21;55.56
33795;BME280;51430;52.242;21.118;2023-03-24T16:27:11;98933.88;;;19.18;55.64
33795;BME280;51430;52.242;21.118;2023-03-24T16:29:40;98929.15;;;19.07;56.02
33795;BME280;51430;52.242;21.118;2023-03-24T16:32:11;98931.64;;;19.07;55.71
33795;BME280;51430;52.242;21.118;2023-03-24T16:34:41;98928.18;;;19.01;55.86
33795;BME280;51430;52.242;21.118;2023-03-24T16:37:12;98932.05;;;19.04;55.95
33795;BME280;51430;52.242;21.118;2023-03-24T16:39:41;98930.77;;;18.94;56.03
33795;BME280;51430;52.242;21.118;2023-03-24T16:42:19;98925.56;;;18.97;56.05
33795;BME280;51430;52.242;21.118;2023-03-24T16:44:47;98933.18;;;18.88;56.39
33795;BME280;51430;52.242;21.118;2023-03-24T16:47:15;98938.22;;;18.81;56.56
33795;BME280;51430;52.242;21.118;2023-03-24T16:49:44;98941.72;;;18.77;57.35
33795;BME280;51430;52.242;21.118;2023-03-24T16:52:13;98947.55;;;18.75;57.87